Aviation Digital Data Service (ADDS)

Output produced by METARs form (1922 UTC 02 October 2022)
found at http://www.aviationweather.gov/metar/data/
 
METAR text: RJAH 021900Z 35004KT 9999 FEW015 BKN/// 17/17 Q1023
Conditions at: RJAH (HYAKURI (JASDF) , JP) observed 1900 UTC 02 October 2022
Temperature: 17.0°C (63°F)
Dewpoint: 17.0°C (63°F) [RH = 100%]
Pressure (altimeter): 30.21 inches Hg (1023.0 mb)
Winds: from the N (350 degrees) at 5 MPH (4 knots; 2.1 m/s)
Visibility: 6 or more miles (10+ km)
Ceiling: at least 12,000 feet AGL
Clouds: few clouds at 1500 feet AGL
Weather: no significant weather observed at this time

Forecast for: RJAH (HYAKURI (JASDF) , JP)
Text: TAF RJAH 021705Z 0218/0400 06005KT 9999 FEW030
Forecast period: 1800 UTC 02 October 2022 to 0200 UTC 03 October 2022
Forecast type: FROM: standard forecast or significant change
Winds: from the ENE (60 degrees) at 6 MPH (5 knots; 2.6 m/s)
Visibility: 6 or more miles (10+ km)
Ceiling: at least 12,000 feet AGL
Clouds: few clouds at 3000 feet AGL
Weather: no significant weather forecast for this period
Text: BECMG 0302/0304 14005KT
Forecast period: 0200 UTC 03 October 2022 to 0000 UTC 04 October 2022
Forecast type: BECOMING: Conditions expected to become as follows by 0400 UTC 03 October 2022
Winds: from the SE (140 degrees) at 6 MPH (5 knots; 2.6 m/s)
Visibility: 6 or more miles (10+ km)
Ceiling: at least 12,000 feet AGL
Clouds: few clouds at 3000 feet AGL
Weather: no significant weather forecast for this period